This is the latest recevied weather packets stored in our database for station/object N7JP. If no packets are shown the sender has not sent any weather packets the latest 1 day(s).
| Time | Temp. | Humidity | Pressure | Rain* | Wind** | Luminosity | Snow |
|---|---|---|---|---|---|---|---|
| 1778013411 | 15° C | 80% | 1011.1 hPa | 0 mm | 1.34 m/s, 132° | - | - |
| 1778012492 | 15° C | 80% | 1011.2 hPa | 0 mm | 1.34 m/s, 119° | - | - |
| 1778011592 | 15° C | 80% | 1011.2 hPa | 0 mm | 1.34 m/s, 294° | - | - |
| 1778010691 | 14.44° C | 81% | 1011.2 hPa | 0 mm | 2.24 m/s, 225° | - | - |
| 1778009762 | 14.44° C | 82% | 1011.2 hPa | 0 mm | 1.79 m/s, 249° | - | - |
| 1778008839 | 13.89° C | 82% | 1011.1 hPa | 0 mm | 2.24 m/s, 167° | - | - |
| 1778007942 | 14.44° C | 83% | 1011.1 hPa | 0 mm | 1.79 m/s, 197° | - | - |
| 1778007027 | 13.89° C | 82% | 1011.1 hPa | 0 mm | 1.79 m/s, 231° | - | - |
| 1778006126 | 13.89° C | 84% | 1011 hPa | 0 mm | 1.34 m/s, 170° | - | - |
| 1778005223 | 13.33° C | 84% | 1011 hPa | 0 mm | 1.79 m/s, 142° | - | - |
| 1778004292 | 13.33° C | 85% | 1010.9 hPa | 0 mm | 1.34 m/s, 177° | - | - |
| 1778003392 | 13.33° C | 85% | 1010.9 hPa | 0 mm | 1.79 m/s, 226° | - | - |
| 1778002490 | 13.33° C | 86% | 1010.9 hPa | 0 mm | 1.79 m/s, 225° | - | - |
| 1778001591 | 13.33° C | 86% | 1010.7 hPa | 0 mm | 0.89 m/s, 194° | - | - |
| 1778000667 | 12.78° C | 87% | 1010.9 hPa | 0 mm | 1.79 m/s, 153° | - | - |
| 1777999766 | 12.78° C | 87% | 1010.9 hPa | 0 mm | 1.34 m/s, 219° | - | - |
| 1777998862 | 12.78° C | 88% | 1010.7 hPa | 0 mm | 1.34 m/s, 221° | - | - |
| 1777997963 | 12.78° C | 88% | 1010.7 hPa | 0 mm | 1.34 m/s, 227° | - | - |
| 1777997033 | 12.22° C | 88% | 1010.6 hPa | 0 mm | 1.34 m/s, 246° | - | - |
| 1777996122 | 12.22° C | 88% | 1010.5 hPa | 0 mm | 0.89 m/s, 206° | - | - |
| 1777995220 | 12.22° C | 89% | 1010.4 hPa | 0 mm | 0.89 m/s, 172° | - | - |
| 1777994321 | 12.22° C | 92% | 1010.4 hPa | 0 mm | 0.89 m/s, 208° | - | - |
* Rain latest hour (hover to see other rain measurements)
** Current wind speed in m/s (hover to see current wind gust speed)